sensor_id;sensor_type;location;lat;lon;timestamp;P1;durP1;ratioP1;P2;durP2;ratioP2
11090;SDS011;5599;52.210;21.046;2023-02-28T00:00:39;19.23;;;10.07;;
11090;SDS011;5599;52.210;21.046;2023-02-28T00:03:08;14.83;;;9.90;;
11090;SDS011;5599;52.210;21.046;2023-02-28T00:05:37;13.60;;;9.27;;
11090;SDS011;5599;52.210;21.046;2023-02-28T00:08:08;17.20;;;11.27;;
11090;SDS011;5599;52.210;21.046;2023-02-28T00:10:38;15.47;;;11.07;;
11090;SDS011;5599;52.210;21.046;2023-02-28T00:13:08;21.77;;;12.90;;
11090;SDS011;5599;52.210;21.046;2023-02-28T00:15:38;24.03;;;12.77;;
11090;SDS011;5599;52.210;21.046;2023-02-28T00:18:07;21.30;;;11.80;;
11090;SDS011;5599;52.210;21.046;2023-02-28T00:20:36;21.17;;;12.40;;
11090;SDS011;5599;52.210;21.046;2023-02-28T00:23:05;14.63;;;10.17;;
11090;SDS011;5599;52.210;21.046;2023-02-28T00:25:36;19.03;;;12.00;;
11090;SDS011;5599;52.210;21.046;2023-02-28T00:28:05;23.00;;;11.67;;
11090;SDS011;5599;52.210;21.046;2023-02-28T00:30:35;19.30;;;12.00;;
11090;SDS011;5599;52.210;21.046;2023-02-28T00:33:04;16.87;;;11.30;;
11090;SDS011;5599;52.210;21.046;2023-02-28T00:35:33;17.77;;;11.13;;
11090;SDS011;5599;52.210;21.046;2023-02-28T00:38:03;22.53;;;12.50;;
11090;SDS011;5599;52.210;21.046;2023-02-28T00:40:35;22.20;;;13.30;;
11090;SDS011;5599;52.210;21.046;2023-02-28T00:43:05;22.07;;;13.07;;
11090;SDS011;5599;52.210;21.046;2023-02-28T00:45:34;16.13;;;11.97;;
11090;SDS011;5599;52.210;21.046;2023-02-28T00:48:04;21.60;;;13.30;;
11090;SDS011;5599;52.210;21.046;2023-02-28T00:50:33;21.33;;;12.80;;
11090;SDS011;5599;52.210;21.046;2023-02-28T00:53:03;20.50;;;13.00;;
11090;SDS011;5599;52.210;21.046;2023-02-28T00:55:32;20.13;;;12.17;;
11090;SDS011;5599;52.210;21.046;2023-02-28T00:58:03;23.20;;;12.70;;
11090;SDS011;5599;52.210;21.046;2023-02-28T01:00:32;22.53;;;13.27;;
11090;SDS011;5599;52.210;21.046;2023-02-28T01:03:01;20.17;;;12.67;;
11090;SDS011;5599;52.210;21.046;2023-02-28T01:05:31;20.57;;;12.50;;
11090;SDS011;5599;52.210;21.046;2023-02-28T01:08:00;22.23;;;12.80;;
11090;SDS011;5599;52.210;21.046;2023-02-28T01:10:29;18.30;;;11.90;;
11090;SDS011;5599;52.210;21.046;2023-02-28T01:12:59;17.83;;;13.20;;
11090;SDS011;5599;52.210;21.046;2023-02-28T01:15:30;21.93;;;13.57;;
11090;SDS011;5599;52.210;21.046;2023-02-28T01:18:00;22.40;;;12.83;;
11090;SDS011;5599;52.210;21.046;2023-02-28T01:20:30;22.13;;;13.27;;
11090;SDS011;5599;52.210;21.046;2023-02-28T01:23:00;26.40;;;14.07;;
11090;SDS011;5599;52.210;21.046;2023-02-28T01:25:30;24.50;;;14.23;;
11090;SDS011;5599;52.210;21.046;2023-02-28T01:28:04;23.00;;;14.03;;
11090;SDS011;5599;52.210;21.046;2023-02-28T01:30:35;23.40;;;13.43;;
11090;SDS011;5599;52.210;21.046;2023-02-28T01:33:05;23.87;;;13.10;;
11090;SDS011;5599;52.210;21.046;2023-02-28T01:35:36;17.20;;;11.33;;
11090;SDS011;5599;52.210;21.046;2023-02-28T01:38:06;20.63;;;11.63;;
11090;SDS011;5599;52.210;21.046;2023-02-28T01:40:48;18.40;;;11.43;;
11090;SDS011;5599;52.210;21.046;2023-02-28T01:43:19;28.40;;;13.43;;
11090;SDS011;5599;52.210;21.046;2023-02-28T01:45:52;24.93;;;14.00;;
11090;SDS011;5599;52.210;21.046;2023-02-28T01:48:23;26.67;;;14.27;;
11090;SDS011;5599;52.210;21.046;2023-02-28T01:50:56;28.73;;;13.30;;
11090;SDS011;5599;52.210;21.046;2023-02-28T01:53:31;21.30;;;12.93;;
11090;SDS011;5599;52.210;21.046;2023-02-28T01:56:03;24.03;;;12.93;;
11090;SDS011;5599;52.210;21.046;2023-02-28T01:58:34;20.10;;;12.30;;
11090;SDS011;5599;52.210;21.046;2023-02-28T02:01:05;20.73;;;12.87;;
11090;SDS011;5599;52.210;21.046;2023-02-28T02:03:35;19.63;;;12.70;;
11090;SDS011;5599;52.210;21.046;2023-02-28T02:06:04;20.17;;;12.27;;
11090;SDS011;5599;52.210;21.046;2023-02-28T02:08:34;18.50;;;12.37;;
11090;SDS011;5599;52.210;21.046;2023-02-28T02:11:07;19.20;;;12.50;;
11090;SDS011;5599;52.210;21.046;2023-02-28T02:13:47;23.57;;;11.60;;
11090;SDS011;5599;52.210;21.046;2023-02-28T02:16:40;17.77;;;12.47;;
11090;SDS011;5599;52.210;21.046;2023-02-28T02:19:34;18.07;;;12.23;;
11090;SDS011;5599;52.210;21.046;2023-02-28T02:22:32;20.53;;;12.23;;
11090;SDS011;5599;52.210;21.046;2023-02-28T02:25:28;20.77;;;12.70;;
11090;SDS011;5599;52.210;21.046;2023-02-28T02:28:06;16.97;;;10.83;;
11090;SDS011;5599;52.210;21.046;2023-02-28T02:31:06;17.07;;;10.13;;
11090;SDS011;5599;52.210;21.046;2023-02-28T02:34:13;14.97;;;10.17;;
11090;SDS011;5599;52.210;21.046;2023-02-28T02:36:59;13.40;;;9.47;;
11090;SDS011;5599;52.210;21.046;2023-02-28T02:39:38;16.93;;;9.90;;
11090;SDS011;5599;52.210;21.046;2023-02-28T02:42:17;14.53;;;10.50;;
11090;SDS011;5599;52.210;21.046;2023-02-28T02:44:53;15.00;;;10.00;;
11090;SDS011;5599;52.210;21.046;2023-02-28T02:47:28;15.73;;;10.77;;
11090;SDS011;5599;52.210;21.046;2023-02-28T02:50:04;14.97;;;9.57;;
11090;SDS011;5599;52.210;21.046;2023-02-28T02:52:38;18.63;;;11.93;;
11090;SDS011;5599;52.210;21.046;2023-02-28T02:55:11;22.97;;;12.57;;
11090;SDS011;5599;52.210;21.046;2023-02-28T02:57:44;15.20;;;10.30;;
11090;SDS011;5599;52.210;21.046;2023-02-28T03:00:16;16.47;;;11.13;;
11090;SDS011;5599;52.210;21.046;2023-02-28T03:02:49;19.90;;;12.50;;
11090;SDS011;5599;52.210;21.046;2023-02-28T03:05:25;22.27;;;12.80;;
11090;SDS011;5599;52.210;21.046;2023-02-28T03:07:56;18.73;;;12.27;;
11090;SDS011;5599;52.210;21.046;2023-02-28T03:10:29;25.73;;;13.00;;
11090;SDS011;5599;52.210;21.046;2023-02-28T03:16:09;26.33;;;12.63;;
11090;SDS011;5599;52.210;21.046;2023-02-28T03:18:52;23.70;;;12.87;;
11090;SDS011;5599;52.210;21.046;2023-02-28T03:21:34;19.40;;;12.07;;
11090;SDS011;5599;52.210;21.046;2023-02-28T03:24:10;21.53;;;12.40;;
11090;SDS011;5599;52.210;21.046;2023-02-28T03:26:45;25.33;;;12.70;;
11090;SDS011;5599;52.210;21.046;2023-02-28T03:29:20;23.00;;;13.83;;
11090;SDS011;5599;52.210;21.046;2023-02-28T03:31:54;24.80;;;13.83;;
11090;SDS011;5599;52.210;21.046;2023-02-28T03:34:31;18.77;;;12.77;;
11090;SDS011;5599;52.210;21.046;2023-02-28T03:37:04;19.00;;;13.47;;
11090;SDS011;5599;52.210;21.046;2023-02-28T03:39:37;21.20;;;13.37;;
11090;SDS011;5599;52.210;21.046;2023-02-28T03:42:11;22.03;;;13.33;;
11090;SDS011;5599;52.210;21.046;2023-02-28T03:44:45;21.77;;;12.67;;
11090;SDS011;5599;52.210;21.046;2023-02-28T03:47:20;18.60;;;12.80;;
11090;SDS011;5599;52.210;21.046;2023-02-28T03:49:54;21.17;;;13.43;;
11090;SDS011;5599;52.210;21.046;2023-02-28T03:52:28;20.47;;;13.77;;
11090;SDS011;5599;52.210;21.046;2023-02-28T03:55:00;19.77;;;12.90;;
11090;SDS011;5599;52.210;21.046;2023-02-28T03:57:36;22.47;;;13.10;;
11090;SDS011;5599;52.210;21.046;2023-02-28T04:00:10;21.50;;;13.60;;
11090;SDS011;5599;52.210;21.046;2023-02-28T04:02:44;21.80;;;13.23;;
11090;SDS011;5599;52.210;21.046;2023-02-28T04:05:19;23.50;;;13.20;;
11090;SDS011;5599;52.210;21.046;2023-02-28T04:07:51;20.67;;;13.40;;
11090;SDS011;5599;52.210;21.046;2023-02-28T04:10:21;22.03;;;14.30;;
11090;SDS011;5599;52.210;21.046;2023-02-28T04:12:50;24.90;;;14.07;;
11090;SDS011;5599;52.210;21.046;2023-02-28T04:15:19;23.77;;;13.57;;
11090;SDS011;5599;52.210;21.046;2023-02-28T04:17:51;24.43;;;14.40;;
11090;SDS011;5599;52.210;21.046;2023-02-28T04:20:21;22.43;;;14.23;;
11090;SDS011;5599;52.210;21.046;2023-02-28T04:22:51;24.70;;;14.77;;
11090;SDS011;5599;52.210;21.046;2023-02-28T04:25:20;22.50;;;14.80;;
11090;SDS011;5599;52.210;21.046;2023-02-28T04:27:50;22.53;;;15.47;;
11090;SDS011;5599;52.210;21.046;2023-02-28T04:30:19;25.07;;;15.17;;
11090;SDS011;5599;52.210;21.046;2023-02-28T04:32:48;33.17;;;15.57;;
11090;SDS011;5599;52.210;21.046;2023-02-28T04:35:18;25.57;;;16.23;;
11090;SDS011;5599;52.210;21.046;2023-02-28T04:37:47;21.97;;;14.77;;
11090;SDS011;5599;52.210;21.046;2023-02-28T04:40:18;23.27;;;15.30;;
11090;SDS011;5599;52.210;21.046;2023-02-28T04:42:47;24.53;;;15.80;;
11090;SDS011;5599;52.210;21.046;2023-02-28T04:45:17;35.20;;;17.17;;
11090;SDS011;5599;52.210;21.046;2023-02-28T04:47:46;26.43;;;15.27;;
11090;SDS011;5599;52.210;21.046;2023-02-28T04:50:15;34.33;;;16.93;;
11090;SDS011;5599;52.210;21.046;2023-02-28T04:52:44;30.83;;;17.37;;
11090;SDS011;5599;52.210;21.046;2023-02-28T04:55:14;28.43;;;15.87;;
11090;SDS011;5599;52.210;21.046;2023-02-28T04:57:45;30.87;;;16.23;;
11090;SDS011;5599;52.210;21.046;2023-02-28T05:00:14;25.90;;;16.93;;
11090;SDS011;5599;52.210;21.046;2023-02-28T05:02:44;27.63;;;16.87;;
11090;SDS011;5599;52.210;21.046;2023-02-28T05:05:13;32.53;;;16.73;;
11090;SDS011;5599;52.210;21.046;2023-02-28T05:07:45;26.63;;;17.13;;
11090;SDS011;5599;52.210;21.046;2023-02-28T05:10:15;32.50;;;16.83;;
11090;SDS011;5599;52.210;21.046;2023-02-28T05:12:46;26.40;;;16.93;;
11090;SDS011;5599;52.210;21.046;2023-02-28T05:15:16;28.93;;;17.43;;
11090;SDS011;5599;52.210;21.046;2023-02-28T05:17:45;28.83;;;15.60;;
11090;SDS011;5599;52.210;21.046;2023-02-28T05:20:15;28.47;;;16.67;;
11090;SDS011;5599;52.210;21.046;2023-02-28T05:22:44;26.87;;;16.27;;
11090;SDS011;5599;52.210;21.046;2023-02-28T05:25:15;29.40;;;16.30;;
11090;SDS011;5599;52.210;21.046;2023-02-28T05:27:48;33.30;;;17.43;;
11090;SDS011;5599;52.210;21.046;2023-02-28T05:30:18;32.43;;;15.80;;
11090;SDS011;5599;52.210;21.046;2023-02-28T05:32:49;24.77;;;15.20;;
11090;SDS011;5599;52.210;21.046;2023-02-28T05:35:19;18.13;;;12.87;;
11090;SDS011;5599;52.210;21.046;2023-02-28T05:37:49;19.63;;;13.23;;
11090;SDS011;5599;52.210;21.046;2023-02-28T05:40:18;28.23;;;14.20;;
11090;SDS011;5599;52.210;21.046;2023-02-28T05:42:51;16.83;;;12.10;;
11090;SDS011;5599;52.210;21.046;2023-02-28T05:45:20;19.97;;;12.43;;
11090;SDS011;5599;52.210;21.046;2023-02-28T05:47:52;18.73;;;12.40;;
11090;SDS011;5599;52.210;21.046;2023-02-28T05:50:22;18.03;;;12.73;;
11090;SDS011;5599;52.210;21.046;2023-02-28T05:52:51;16.37;;;12.07;;
11090;SDS011;5599;52.210;21.046;2023-02-28T05:55:20;22.17;;;13.17;;
11090;SDS011;5599;52.210;21.046;2023-02-28T05:57:51;15.53;;;11.37;;
11090;SDS011;5599;52.210;21.046;2023-02-28T06:00:21;15.63;;;10.90;;
11090;SDS011;5599;52.210;21.046;2023-02-28T06:02:50;18.23;;;11.83;;
11090;SDS011;5599;52.210;21.046;2023-02-28T06:05:23;27.37;;;13.20;;
11090;SDS011;5599;52.210;21.046;2023-02-28T06:07:52;16.53;;;11.20;;
11090;SDS011;5599;52.210;21.046;2023-02-28T06:10:22;16.67;;;11.43;;
11090;SDS011;5599;52.210;21.046;2023-02-28T06:12:52;18.67;;;12.33;;
11090;SDS011;5599;52.210;21.046;2023-02-28T06:15:22;21.13;;;12.50;;
11090;SDS011;5599;52.210;21.046;2023-02-28T06:17:51;20.97;;;13.23;;
11090;SDS011;5599;52.210;21.046;2023-02-28T06:20:23;24.47;;;14.27;;
11090;SDS011;5599;52.210;21.046;2023-02-28T06:22:56;19.93;;;13.20;;
11090;SDS011;5599;52.210;21.046;2023-02-28T06:25:27;25.63;;;13.93;;
11090;SDS011;5599;52.210;21.046;2023-02-28T06:27:58;29.17;;;14.13;;
11090;SDS011;5599;52.210;21.046;2023-02-28T06:30:27;21.83;;;13.80;;
11090;SDS011;5599;52.210;21.046;2023-02-28T06:32:58;25.40;;;14.23;;
11090;SDS011;5599;52.210;21.046;2023-02-28T06:35:27;26.00;;;13.93;;
11090;SDS011;5599;52.210;21.046;2023-02-28T06:37:56;21.23;;;12.60;;
11090;SDS011;5599;52.210;21.046;2023-02-28T06:40:26;22.50;;;13.10;;
11090;SDS011;5599;52.210;21.046;2023-02-28T06:43:00;24.07;;;13.43;;
11090;SDS011;5599;52.210;21.046;2023-02-28T06:45:29;18.13;;;12.83;;
11090;SDS011;5599;52.210;21.046;2023-02-28T06:47:59;19.87;;;12.83;;
11090;SDS011;5599;52.210;21.046;2023-02-28T06:50:28;17.47;;;12.43;;
11090;SDS011;5599;52.210;21.046;2023-02-28T06:53:00;16.30;;;13.20;;
11090;SDS011;5599;52.210;21.046;2023-02-28T06:55:29;18.00;;;12.60;;
11090;SDS011;5599;52.210;21.046;2023-02-28T06:58:00;15.60;;;12.53;;
11090;SDS011;5599;52.210;21.046;2023-02-28T07:00:29;16.17;;;12.07;;
11090;SDS011;5599;52.210;21.046;2023-02-28T07:02:59;18.27;;;12.20;;
11090;SDS011;5599;52.210;21.046;2023-02-28T07:05:28;13.67;;;11.03;;
11090;SDS011;5599;52.210;21.046;2023-02-28T07:07:58;16.73;;;12.30;;
11090;SDS011;5599;52.210;21.046;2023-02-28T07:10:28;18.37;;;12.10;;
11090;SDS011;5599;52.210;21.046;2023-02-28T07:12:57;20.03;;;11.50;;
11090;SDS011;5599;52.210;21.046;2023-02-28T07:15:28;18.10;;;12.33;;
11090;SDS011;5599;52.210;21.046;2023-02-28T07:17:57;15.93;;;11.80;;
11090;SDS011;5599;52.210;21.046;2023-02-28T07:20:27;17.43;;;12.33;;
11090;SDS011;5599;52.210;21.046;2023-02-28T07:22:56;16.83;;;12.33;;
11090;SDS011;5599;52.210;21.046;2023-02-28T07:25:26;19.90;;;11.13;;
11090;SDS011;5599;52.210;21.046;2023-02-28T07:27:56;17.77;;;11.10;;
11090;SDS011;5599;52.210;21.046;2023-02-28T07:30:27;14.53;;;8.80;;
11090;SDS011;5599;52.210;21.046;2023-02-28T07:32:56;12.37;;;8.93;;
11090;SDS011;5599;52.210;21.046;2023-02-28T07:35:26;17.93;;;9.27;;
11090;SDS011;5599;52.210;21.046;2023-02-28T07:37:56;13.43;;;10.10;;
11090;SDS011;5599;52.210;21.046;2023-02-28T07:40:26;12.70;;;9.73;;
11090;SDS011;5599;52.210;21.046;2023-02-28T07:42:55;14.57;;;8.83;;
11090;SDS011;5599;52.210;21.046;2023-02-28T07:45:28;13.93;;;8.93;;
11090;SDS011;5599;52.210;21.046;2023-02-28T07:48:00;16.47;;;8.83;;
11090;SDS011;5599;52.210;21.046;2023-02-28T07:50:29;9.80;;;7.73;;
11090;SDS011;5599;52.210;21.046;2023-02-28T07:52:59;8.03;;;6.20;;
11090;SDS011;5599;52.210;21.046;2023-02-28T07:55:28;9.27;;;5.90;;
11090;SDS011;5599;52.210;21.046;2023-02-28T07:57:57;7.67;;;6.57;;
11090;SDS011;5599;52.210;21.046;2023-02-28T08:00:28;10.13;;;7.47;;
11090;SDS011;5599;52.210;21.046;2023-02-28T08:02:59;8.67;;;6.27;;
11090;SDS011;5599;52.210;21.046;2023-02-28T08:05:28;6.20;;;5.27;;
11090;SDS011;5599;52.210;21.046;2023-02-28T08:07:58;10.00;;;5.97;;
11090;SDS011;5599;52.210;21.046;2023-02-28T08:10:27;5.27;;;4.77;;
11090;SDS011;5599;52.210;21.046;2023-02-28T08:12:57;8.17;;;5.37;;
11090;SDS011;5599;52.210;21.046;2023-02-28T08:15:26;7.17;;;5.30;;
11090;SDS011;5599;52.210;21.046;2023-02-28T08:17:57;5.77;;;4.90;;
11090;SDS011;5599;52.210;21.046;2023-02-28T08:20:26;7.67;;;5.00;;
11090;SDS011;5599;52.210;21.046;2023-02-28T08:22:56;6.00;;;4.57;;
11090;SDS011;5599;52.210;21.046;2023-02-28T08:25:25;6.37;;;5.77;;
11090;SDS011;5599;52.210;21.046;2023-02-28T08:27:55;5.97;;;5.30;;
11090;SDS011;5599;52.210;21.046;2023-02-28T08:30:24;11.40;;;5.70;;
11090;SDS011;5599;52.210;21.046;2023-02-28T08:32:55;9.50;;;7.70;;
11090;SDS011;5599;52.210;21.046;2023-02-28T08:35:24;10.43;;;7.80;;
11090;SDS011;5599;52.210;21.046;2023-02-28T08:37:54;10.20;;;8.27;;
11090;SDS011;5599;52.210;21.046;2023-02-28T08:40:24;8.93;;;7.93;;
11090;SDS011;5599;52.210;21.046;2023-02-28T08:42:53;10.20;;;8.17;;
11090;SDS011;5599;52.210;21.046;2023-02-28T08:45:22;12.30;;;7.33;;
11090;SDS011;5599;52.210;21.046;2023-02-28T08:47:52;10.73;;;7.70;;
11090;SDS011;5599;52.210;21.046;2023-02-28T08:50:24;13.80;;;7.67;;
11090;SDS011;5599;52.210;21.046;2023-02-28T08:52:53;11.80;;;8.20;;
11090;SDS011;5599;52.210;21.046;2023-02-28T08:55:23;11.27;;;7.87;;
11090;SDS011;5599;52.210;21.046;2023-02-28T08:57:52;10.77;;;8.80;;
11090;SDS011;5599;52.210;21.046;2023-02-28T09:00:22;12.43;;;8.43;;
11090;SDS011;5599;52.210;21.046;2023-02-28T09:02:52;8.40;;;7.33;;
11090;SDS011;5599;52.210;21.046;2023-02-28T09:05:23;9.03;;;8.13;;
11090;SDS011;5599;52.210;21.046;2023-02-28T09:07:52;10.73;;;8.00;;
11090;SDS011;5599;52.210;21.046;2023-02-28T09:10:21;8.43;;;7.20;;
11090;SDS011;5599;52.210;21.046;2023-02-28T09:12:51;9.13;;;8.10;;
11090;SDS011;5599;52.210;21.046;2023-02-28T09:15:20;8.80;;;7.50;;
11090;SDS011;5599;52.210;21.046;2023-02-28T09:17:50;10.80;;;8.23;;
11090;SDS011;5599;52.210;21.046;2023-02-28T09:20:19;9.63;;;8.40;;
11090;SDS011;5599;52.210;21.046;2023-02-28T09:22:50;11.77;;;8.30;;
11090;SDS011;5599;52.210;21.046;2023-02-28T09:25:19;10.03;;;8.93;;
11090;SDS011;5599;52.210;21.046;2023-02-28T09:27:49;8.70;;;7.70;;
11090;SDS011;5599;52.210;21.046;2023-02-28T09:30:18;14.00;;;8.47;;
11090;SDS011;5599;52.210;21.046;2023-02-28T09:32:48;10.57;;;8.13;;
11090;SDS011;5599;52.210;21.046;2023-02-28T09:35:19;9.93;;;8.93;;
11090;SDS011;5599;52.210;21.046;2023-02-28T09:37:51;11.53;;;8.90;;
11090;SDS011;5599;52.210;21.046;2023-02-28T09:40:21;12.40;;;8.13;;
11090;SDS011;5599;52.210;21.046;2023-02-28T09:42:52;9.90;;;8.77;;
11090;SDS011;5599;52.210;21.046;2023-02-28T09:45:24;16.47;;;8.50;;
11090;SDS011;5599;52.210;21.046;2023-02-28T09:48:01;10.53;;;7.97;;
11090;SDS011;5599;52.210;21.046;2023-02-28T09:50:33;8.87;;;7.80;;
11090;SDS011;5599;52.210;21.046;2023-02-28T09:53:10;11.30;;;7.80;;
11090;SDS011;5599;52.210;21.046;2023-02-28T09:55:48;11.13;;;7.60;;
11090;SDS011;5599;52.210;21.046;2023-02-28T09:58:23;11.80;;;7.87;;
11090;SDS011;5599;52.210;21.046;2023-02-28T10:01:00;13.40;;;8.70;;
11090;SDS011;5599;52.210;21.046;2023-02-28T10:03:39;11.93;;;7.63;;
11090;SDS011;5599;52.210;21.046;2023-02-28T10:06:12;12.10;;;7.90;;
11090;SDS011;5599;52.210;21.046;2023-02-28T10:08:50;12.87;;;8.70;;
11090;SDS011;5599;52.210;21.046;2023-02-28T10:11:25;11.73;;;9.37;;
11090;SDS011;5599;52.210;21.046;2023-02-28T10:13:59;16.47;;;8.20;;
11090;SDS011;5599;52.210;21.046;2023-02-28T10:16:34;10.20;;;8.37;;
11090;SDS011;5599;52.210;21.046;2023-02-28T10:19:10;9.23;;;8.23;;
11090;SDS011;5599;52.210;21.046;2023-02-28T10:21:45;9.83;;;8.60;;
11090;SDS011;5599;52.210;21.046;2023-02-28T10:24:23;15.07;;;8.43;;
11090;SDS011;5599;52.210;21.046;2023-02-28T10:26:59;11.37;;;8.50;;
11090;SDS011;5599;52.210;21.046;2023-02-28T10:29:33;9.90;;;8.70;;
11090;SDS011;5599;52.210;21.046;2023-02-28T10:32:03;10.73;;;8.53;;
11090;SDS011;5599;52.210;21.046;2023-02-28T10:34:33;14.00;;;10.73;;
11090;SDS011;5599;52.210;21.046;2023-02-28T10:37:03;14.87;;;11.97;;
11090;SDS011;5599;52.210;21.046;2023-02-28T10:39:38;12.37;;;9.00;;
11090;SDS011;5599;52.210;21.046;2023-02-28T10:42:19;9.67;;;8.60;;
11090;SDS011;5599;52.210;21.046;2023-02-28T10:45:09;13.07;;;9.17;;
11090;SDS011;5599;52.210;21.046;2023-02-28T10:47:48;15.67;;;8.83;;
11090;SDS011;5599;52.210;21.046;2023-02-28T10:50:28;13.87;;;8.67;;
11090;SDS011;5599;52.210;21.046;2023-02-28T10:55:59;11.67;;;8.73;;
11090;SDS011;5599;52.210;21.046;2023-02-28T10:58:33;11.80;;;9.10;;
11090;SDS011;5599;52.210;21.046;2023-02-28T11:01:17;11.80;;;8.63;;
11090;SDS011;5599;52.210;21.046;2023-02-28T11:03:48;13.37;;;8.80;;
11090;SDS011;5599;52.210;21.046;2023-02-28T11:06:19;15.43;;;9.13;;
11090;SDS011;5599;52.210;21.046;2023-02-28T11:08:53;10.73;;;8.63;;
11090;SDS011;5599;52.210;21.046;2023-02-28T11:11:26;11.30;;;9.63;;
11090;SDS011;5599;52.210;21.046;2023-02-28T11:14:02;14.87;;;9.13;;
11090;SDS011;5599;52.210;21.046;2023-02-28T11:16:34;10.57;;;9.33;;
11090;SDS011;5599;52.210;21.046;2023-02-28T11:19:06;10.83;;;9.13;;
11090;SDS011;5599;52.210;21.046;2023-02-28T11:21:52;11.93;;;9.43;;
11090;SDS011;5599;52.210;21.046;2023-02-28T11:24:24;12.63;;;9.97;;
11090;SDS011;5599;52.210;21.046;2023-02-28T11:26:57;10.83;;;8.93;;
11090;SDS011;5599;52.210;21.046;2023-02-28T11:29:28;11.53;;;8.97;;
11090;SDS011;5599;52.210;21.046;2023-02-28T11:32:13;13.20;;;9.23;;
11090;SDS011;5599;52.210;21.046;2023-02-28T11:34:59;14.77;;;10.43;;
11090;SDS011;5599;52.210;21.046;2023-02-28T11:37:31;17.93;;;10.43;;
11090;SDS011;5599;52.210;21.046;2023-02-28T11:40:01;12.17;;;9.80;;
11090;SDS011;5599;52.210;21.046;2023-02-28T11:42:42;11.73;;;9.60;;
11090;SDS011;5599;52.210;21.046;2023-02-28T11:45:36;10.37;;;9.27;;
11090;SDS011;5599;52.210;21.046;2023-02-28T11:48:17;11.70;;;9.77;;
11090;SDS011;5599;52.210;21.046;2023-02-28T11:50:56;11.90;;;9.30;;
11090;SDS011;5599;52.210;21.046;2023-02-28T11:56:31;10.87;;;9.77;;
11090;SDS011;5599;52.210;21.046;2023-02-28T11:59:10;12.43;;;10.07;;
11090;SDS011;5599;52.210;21.046;2023-02-28T12:05:05;12.20;;;9.17;;
11090;SDS011;5599;52.210;21.046;2023-02-28T12:07:53;12.07;;;9.97;;
11090;SDS011;5599;52.210;21.046;2023-02-28T12:10:29;12.53;;;9.87;;
11090;SDS011;5599;52.210;21.046;2023-02-28T12:13:07;11.93;;;10.23;;
11090;SDS011;5599;52.210;21.046;2023-02-28T12:15:53;15.33;;;10.33;;
11090;SDS011;5599;52.210;21.046;2023-02-28T12:18:36;13.83;;;10.27;;
11090;SDS011;5599;52.210;21.046;2023-02-28T12:21:18;13.93;;;11.03;;
11090;SDS011;5599;52.210;21.046;2023-02-28T12:26:55;14.60;;;10.53;;
11090;SDS011;5599;52.210;21.046;2023-02-28T12:29:29;16.00;;;9.73;;
11090;SDS011;5599;52.210;21.046;2023-02-28T12:32:03;13.33;;;9.93;;
11090;SDS011;5599;52.210;21.046;2023-02-28T12:34:36;16.23;;;10.27;;
11090;SDS011;5599;52.210;21.046;2023-02-28T12:37:10;12.73;;;9.73;;
11090;SDS011;5599;52.210;21.046;2023-02-28T12:39:45;13.20;;;10.40;;
11090;SDS011;5599;52.210;21.046;2023-02-28T12:42:19;14.97;;;10.20;;
11090;SDS011;5599;52.210;21.046;2023-02-28T12:44:56;16.07;;;10.43;;
11090;SDS011;5599;52.210;21.046;2023-02-28T12:47:31;12.17;;;10.43;;
11090;SDS011;5599;52.210;21.046;2023-02-28T12:50:02;12.33;;;9.70;;
11090;SDS011;5599;52.210;21.046;2023-02-28T12:52:36;13.90;;;9.83;;
11090;SDS011;5599;52.210;21.046;2023-02-28T12:55:12;13.87;;;10.20;;
11090;SDS011;5599;52.210;21.046;2023-02-28T12:57:48;13.13;;;9.77;;
11090;SDS011;5599;52.210;21.046;2023-02-28T13:00:25;13.00;;;9.43;;
11090;SDS011;5599;52.210;21.046;2023-02-28T13:03:11;17.17;;;10.17;;
11090;SDS011;5599;52.210;21.046;2023-02-28T13:09:02;13.80;;;10.47;;
11090;SDS011;5599;52.210;21.046;2023-02-28T13:11:38;13.97;;;10.63;;
11090;SDS011;5599;52.210;21.046;2023-02-28T13:14:18;13.23;;;10.63;;
11090;SDS011;5599;52.210;21.046;2023-02-28T13:17:01;15.17;;;11.20;;
11090;SDS011;5599;52.210;21.046;2023-02-28T13:19:40;15.73;;;11.10;;
11090;SDS011;5599;52.210;21.046;2023-02-28T13:22:19;14.27;;;10.47;;
11090;SDS011;5599;52.210;21.046;2023-02-28T13:34:46;16.70;;;10.63;;
11090;SDS011;5599;52.210;21.046;2023-02-28T13:37:41;14.37;;;10.50;;
11090;SDS011;5599;52.210;21.046;2023-02-28T13:40:28;17.83;;;10.37;;
11090;SDS011;5599;52.210;21.046;2023-02-28T13:43:06;14.07;;;10.40;;
11090;SDS011;5599;52.210;21.046;2023-02-28T13:45:37;12.33;;;10.40;;
11090;SDS011;5599;52.210;21.046;2023-02-28T13:48:17;13.17;;;10.30;;
11090;SDS011;5599;52.210;21.046;2023-02-28T13:50:53;13.80;;;10.63;;
11090;SDS011;5599;52.210;21.046;2023-02-28T13:56:21;15.30;;;10.67;;
11090;SDS011;5599;52.210;21.046;2023-02-28T13:58:58;15.40;;;11.00;;
11090;SDS011;5599;52.210;21.046;2023-02-28T14:01:37;18.33;;;11.00;;
11090;SDS011;5599;52.210;21.046;2023-02-28T14:07:25;13.40;;;10.50;;
11090;SDS011;5599;52.210;21.046;2023-02-28T14:10:03;14.73;;;9.60;;
11090;SDS011;5599;52.210;21.046;2023-02-28T14:12:55;12.50;;;10.33;;
11090;SDS011;5599;52.210;21.046;2023-02-28T14:15:39;12.40;;;10.30;;
11090;SDS011;5599;52.210;21.046;2023-02-28T14:18:20;11.40;;;10.20;;
11090;SDS011;5599;52.210;21.046;2023-02-28T14:20:54;14.37;;;9.97;;
11090;SDS011;5599;52.210;21.046;2023-02-28T14:26:53;14.70;;;9.97;;
11090;SDS011;5599;52.210;21.046;2023-02-28T14:29:41;17.77;;;10.23;;
11090;SDS011;5599;52.210;21.046;2023-02-28T14:32:28;17.67;;;10.97;;
11090;SDS011;5599;52.210;21.046;2023-02-28T14:35:03;14.70;;;10.07;;
11090;SDS011;5599;52.210;21.046;2023-02-28T14:37:42;12.20;;;10.07;;
11090;SDS011;5599;52.210;21.046;2023-02-28T14:40:12;12.50;;;10.73;;
11090;SDS011;5599;52.210;21.046;2023-02-28T14:42:54;13.60;;;10.40;;
11090;SDS011;5599;52.210;21.046;2023-02-28T14:45:27;14.20;;;10.70;;
11090;SDS011;5599;52.210;21.046;2023-02-28T14:47:58;13.63;;;10.10;;
11090;SDS011;5599;52.210;21.046;2023-02-28T14:50:29;12.03;;;9.70;;
11090;SDS011;5599;52.210;21.046;2023-02-28T14:53:02;11.23;;;9.67;;
11090;SDS011;5599;52.210;21.046;2023-02-28T14:55:35;12.77;;;9.67;;
11090;SDS011;5599;52.210;21.046;2023-02-28T14:58:06;10.40;;;9.20;;
11090;SDS011;5599;52.210;21.046;2023-02-28T15:00:49;14.77;;;9.93;;
11090;SDS011;5599;52.210;21.046;2023-02-28T15:03:20;10.50;;;9.43;;
11090;SDS011;5599;52.210;21.046;2023-02-28T15:05:51;10.90;;;9.57;;
11090;SDS011;5599;52.210;21.046;2023-02-28T15:08:22;12.57;;;9.50;;
11090;SDS011;5599;52.210;21.046;2023-02-28T15:10:53;14.43;;;10.00;;
11090;SDS011;5599;52.210;21.046;2023-02-28T15:13:26;11.00;;;9.27;;
11090;SDS011;5599;52.210;21.046;2023-02-28T15:16:04;11.20;;;9.47;;
11090;SDS011;5599;52.210;21.046;2023-02-28T15:18:42;15.30;;;9.20;;
11090;SDS011;5599;52.210;21.046;2023-02-28T15:21:16;14.20;;;10.30;;
11090;SDS011;5599;52.210;21.046;2023-02-28T15:23:49;11.53;;;9.37;;
11090;SDS011;5599;52.210;21.046;2023-02-28T15:26:20;11.90;;;9.23;;
11090;SDS011;5599;52.210;21.046;2023-02-28T15:28:58;10.47;;;9.20;;
11090;SDS011;5599;52.210;21.046;2023-02-28T15:31:29;13.17;;;9.53;;
11090;SDS011;5599;52.210;21.046;2023-02-28T15:34:20;13.57;;;9.33;;
11090;SDS011;5599;52.210;21.046;2023-02-28T15:37:07;11.90;;;8.73;;
11090;SDS011;5599;52.210;21.046;2023-02-28T15:40:04;12.57;;;9.50;;
11090;SDS011;5599;52.210;21.046;2023-02-28T15:42:39;13.27;;;8.80;;